Terminal Aerodrome Forecast
Issued by NWS

Current Version | Previous Version | Text Only | Print | Product List | Glossary On
Versions: 1 2 3 4 5 6 7 8 9 10 11 12 13 14 15 16 17 18
000
FTUS45 KPIH 011700
TAFSUN
TAF
KSUN 011720Z 0118/0218 30006KT P6SM FEW050
     FM012100 13006KT P6SM BKN080
     FM020200 31006KT P6SM FEW070
     FM020800 31015KT P6SM SKC
     FM021500 31006KT P6SM FEW110 FEW200=

USA.gov is the U.S. government's official web portal to all federal, state and local government web resources and services.